Time;durP1;ratioP1;P1;durP2;ratioP2;P2;SDS_P1;SDS_P2;PMS_P1;PMS_P2;Temp;Humidity;BMP_temperature;BMP_pressure;BME280_temperature;BME280_humidity;BME280_pressure;Samples;Min_cycle;Max_cycle;Signal;HPM_P1;HPM_P2
2022/06/25 00:02:16;;;;;;;33.90;30.48;;;;;;;;;;5086310;28;20523;-75
2022/06/25 00:07:27;;;;;;;39.00;35.00;;;;;;;;;;5084757;28;20556;-74
2022/06/25 00:09:53;;;;;;;37.70;33.70;;;;;;;;;;5086795;28;20422;-75
2022/06/25 00:12:34;;;;;;;35.67;31.75;;;;;;;;;;5091271;28;20421;-75
2022/06/25 00:15:00;;;;;;;36.27;32.57;;;;;;;;;;5084353;28;20414;-75
2022/06/25 00:17:27;;;;;;;35.47;31.67;;;;;;;;;;5091491;28;20910;-75
2022/06/25 00:19:53;;;;;;;36.47;32.55;;;;;;;;;;5090976;28;20935;-75
2022/06/25 00:22:19;;;;;;;36.63;32.72;;;;;;;;;;5090265;28;20434;-75
2022/06/25 00:24:47;;;;;;;36.10;32.40;;;;;;;;;;5084082;28;20442;-75
2022/06/25 00:27:13;;;;;;;36.80;32.22;;;;;;;;;;5090570;28;20944;-75
2022/06/25 00:29:40;;;;;;;38.63;33.90;;;;;;;;;;5086496;28;20418;-75
2022/06/25 00:32:09;;;;;;;34.17;29.90;;;;;;;;;;5092046;28;20801;-75
2022/06/25 00:34:35;;;;;;;37.47;31.90;;;;;;;;;;5091459;28;20838;-75
2022/06/25 00:37:02;;;;;;;32.28;28.88;;;;;;;;;;5087326;28;20428;-75
2022/06/25 00:39:28;;;;;;;33.17;29.77;;;;;;;;;;5091136;28;20409;-75
2022/06/25 00:41:56;;;;;;;35.83;32.13;;;;;;;;;;5089395;28;20508;-75
2022/06/25 00:44:22;;;;;;;35.17;31.58;;;;;;;;;;5086633;28;20430;-75
2022/06/25 00:46:48;;;;;;;31.10;27.80;;;;;;;;;;5089153;28;20426;-74
2022/06/25 00:49:15;;;;;;;32.95;29.65;;;;;;;;;;5088296;28;20561;-75
2022/06/25 00:51:42;;;;;;;32.92;29.58;;;;;;;;;;5088291;28;20500;-75
2022/06/25 00:54:10;;;;;;;34.83;29.63;;;;;;;;;;5085857;28;20417;-75
2022/06/25 00:56:37;;;;;;;32.63;29.23;;;;;;;;;;5087215;28;20444;-75
2022/06/25 00:59:05;;;;;;;32.85;29.45;;;;;;;;;;5088997;28;20786;-75
2022/06/25 01:01:33;;;;;;;32.55;29.25;;;;;;;;;;5087882;28;20425;-75
2022/06/25 01:03:59;;;;;;;31.43;28.27;;;;;;;;;;5086309;28;21225;-75
2022/06/25 01:06:27;;;;;;;30.60;27.60;;;;;;;;;;5089253;28;20422;-75
2022/06/25 01:08:53;;;;;;;29.35;26.45;;;;;;;;;;5092626;28;20478;-75
2022/06/25 01:11:20;;;;;;;32.47;29.00;;;;;;;;;;5084949;28;20434;-75
2022/06/25 01:13:46;;;;;;;31.25;28.15;;;;;;;;;;5090896;28;20416;-75
2022/06/25 01:16:13;;;;;;;29.00;26.10;;;;;;;;;;5086896;28;20422;-75
2022/06/25 01:18:40;;;;;;;25.50;23.00;;;;;;;;;;5078862;28;20411;-75
2022/06/25 01:21:06;;;;;;;25.70;23.20;;;;;;;;;;5080212;28;20787;-75
2022/06/25 01:23:34;;;;;;;26.67;24.08;;;;;;;;;;5084325;28;20429;-75
2022/06/25 01:26:00;;;;;;;25.83;23.23;;;;;;;;;;5088878;28;20433;-75
2022/06/25 01:28:26;;;;;;;26.17;23.58;;;;;;;;;;5088176;28;20439;-75
2022/06/25 01:30:53;;;;;;;26.05;23.55;;;;;;;;;;5092750;28;20435;-75
2022/06/25 01:33:19;;;;;;;28.88;26.00;;;;;;;;;;5084266;28;20492;-75
2022/06/25 01:35:46;;;;;;;28.45;25.55;;;;;;;;;;5084512;28;20956;-75
2022/06/25 01:38:12;;;;;;;31.75;28.55;;;;;;;;;;5082422;28;20430;-74
2022/06/25 01:40:39;;;;;;;31.98;28.77;;;;;;;;;;5090144;28;20420;-75
2022/06/25 01:43:06;;;;;;;28.20;25.30;;;;;;;;;;5093598;28;20420;-75
2022/06/25 01:45:33;;;;;;;28.40;25.35;;;;;;;;;;5094418;28;20427;-75
2022/06/25 01:47:59;;;;;;;35.20;31.58;;;;;;;;;;5094560;28;20436;-75
2022/06/25 01:50:26;;;;;;;34.78;31.25;;;;;;;;;;5095517;28;20929;-75
2022/06/25 01:52:53;;;;;;;34.55;31.05;;;;;;;;;;5098418;28;20427;-75
2022/06/25 01:55:19;;;;;;;36.35;32.72;;;;;;;;;;5095980;28;20488;-75
2022/06/25 01:57:47;;;;;;;33.50;30.00;;;;;;;;;;5083861;28;20424;-75
2022/06/25 02:00:15;;;;;;;33.95;30.45;;;;;;;;;;5091809;28;20426;-74
2022/06/25 02:02:41;;;;;;;34.38;30.77;;;;;;;;;;5098398;28;20424;-75
2022/06/25 02:05:08;;;;;;;34.40;30.87;;;;;;;;;;5102564;28;20448;-74
2022/06/25 02:07:34;;;;;;;31.92;28.83;;;;;;;;;;5090483;28;20432;-74
2022/06/25 02:10:01;;;;;;;31.40;28.30;;;;;;;;;;5098953;28;20421;-75
2022/06/25 02:12:27;;;;;;;32.75;29.55;;;;;;;;;;5096034;28;20496;-75
2022/06/25 02:14:55;;;;;;;34.10;30.50;;;;;;;;;;5098399;28;20413;-75
2022/06/25 02:17:21;;;;;;;36.38;32.55;;;;;;;;;;5094807;28;20429;-75
2022/06/25 02:19:48;;;;;;;35.28;31.80;;;;;;;;;;5089746;28;20418;-75
2022/06/25 02:22:15;;;;;;;30.77;27.88;;;;;;;;;;5087018;28;20422;-75
2022/06/25 02:24:42;;;;;;;29.33;26.53;;;;;;;;;;5092440;28;20408;-75
2022/06/25 02:27:08;;;;;;;32.78;29.48;;;;;;;;;;5089181;28;20905;-74
2022/06/25 02:29:34;;;;;;;27.43;24.80;;;;;;;;;;5098332;28;20420;-74
2022/06/25 02:32:02;;;;;;;34.05;30.58;;;;;;;;;;5093347;28;20437;-75
2022/06/25 02:34:28;;;;;;;33.50;30.00;;;;;;;;;;5101016;28;20787;-75
2022/06/25 02:36:55;;;;;;;35.78;32.00;;;;;;;;;;5093550;28;20421;-75
2022/06/25 02:39:21;;;;;;;39.28;35.17;;;;;;;;;;5089743;28;20414;-75
2022/06/25 02:41:47;;;;;;;38.20;34.30;;;;;;;;;;5089083;28;20426;-75
2022/06/25 02:44:14;;;;;;;38.00;33.97;;;;;;;;;;5090482;28;20440;-75
2022/06/25 02:46:40;;;;;;;37.60;33.77;;;;;;;;;;5092555;28;20430;-75
2022/06/25 02:49:08;;;;;;;41.65;37.15;;;;;;;;;;5090941;28;20914;-75
2022/06/25 02:51:34;;;;;;;44.50;39.58;;;;;;;;;;5084839;28;20815;-75
2022/06/25 02:54:00;;;;;;;44.33;39.73;;;;;;;;;;5087220;28;20431;-75
2022/06/25 02:59:11;;;;;;;48.75;43.65;;;;;;;;;;5088377;28;20416;-75
2022/06/25 03:01:37;;;;;;;47.65;42.63;;;;;;;;;;5089053;28;20432;-75
2022/06/25 03:04:04;;;;;;;51.78;46.08;;;;;;;;;;5089386;28;20426;-75
2022/06/25 03:06:31;;;;;;;49.70;44.50;;;;;;;;;;5089375;28;20444;-75
2022/06/25 03:08:58;;;;;;;52.55;46.75;;;;;;;;;;5084508;28;20994;-75
2022/06/25 03:11:24;;;;;;;49.47;44.28;;;;;;;;;;5092318;28;20429;-75
2022/06/25 03:13:50;;;;;;;53.17;46.40;;;;;;;;;;5090214;28;20421;-75
2022/06/25 03:16:17;;;;;;;51.35;45.75;;;;;;;;;;5089331;28;20917;-75
2022/06/25 03:18:43;;;;;;;42.42;38.03;;;;;;;;;;5089130;28;20405;-74
2022/06/25 03:21:09;;;;;;;45.90;40.97;;;;;;;;;;5085871;28;20426;-75
2022/06/25 03:23:37;;;;;;;48.60;43.55;;;;;;;;;;5090964;28;20438;-75
2022/06/25 03:26:03;;;;;;;45.00;40.35;;;;;;;;;;5084645;28;20454;-75
2022/06/25 03:28:29;;;;;;;48.80;41.90;;;;;;;;;;5085358;28;20798;-75
2022/06/25 03:30:56;;;;;;;47.58;42.38;;;;;;;;;;5089540;28;20425;-75
2022/06/25 03:33:22;;;;;;;44.88;39.97;;;;;;;;;;5087997;28;20913;-74
2022/06/25 03:35:48;;;;;;;39.38;35.17;;;;;;;;;;5088853;28;20424;-75
2022/06/25 03:38:15;;;;;;;48.67;42.20;;;;;;;;;;5090237;28;20417;-75
2022/06/25 03:40:42;;;;;;;46.58;41.63;;;;;;;;;;5091037;28;20437;-75
2022/06/25 03:43:09;;;;;;;42.17;37.78;;;;;;;;;;5090789;28;20417;-75
2022/06/25 03:45:35;;;;;;;47.58;42.58;;;;;;;;;;5086874;28;20790;-75
2022/06/25 03:48:02;;;;;;;46.70;41.65;;;;;;;;;;5089922;28;20923;-74
2022/06/25 03:50:28;;;;;;;50.40;42.03;;;;;;;;;;5090349;28;20430;-75
2022/06/25 03:52:54;;;;;;;43.73;37.87;;;;;;;;;;5087256;28;20426;-75
2022/06/25 03:55:21;;;;;;;47.55;40.55;;;;;;;;;;5090413;28;20425;-75
2022/06/25 03:57:48;;;;;;;43.72;38.78;;;;;;;;;;5084338;28;20425;-75
2022/06/25 04:00:15;;;;;;;43.78;38.97;;;;;;;;;;5086050;28;20421;-75
2022/06/25 04:02:42;;;;;;;38.40;34.22;;;;;;;;;;5085273;28;20439;-75
2022/06/25 04:05:08;;;;;;;40.67;36.25;;;;;;;;;;5097557;28;20418;-75
2022/06/25 04:07:35;;;;;;;41.00;36.60;;;;;;;;;;5090024;28;20422;-75
2022/06/25 04:10:01;;;;;;;40.50;35.58;;;;;;;;;;5088044;28;20440;-75
2022/06/25 04:12:28;;;;;;;37.83;33.83;;;;;;;;;;5093445;28;20416;-75
2022/06/25 04:14:56;;;;;;;38.65;34.55;;;;;;;;;;5090094;28;20429;-75
2022/06/25 04:17:22;;;;;;;40.20;36.03;;;;;;;;;;5085386;28;20510;-75
2022/06/25 04:19:48;;;;;;;38.35;34.25;;;;;;;;;;5089499;28;20453;-75
2022/06/25 04:22:15;;;;;;;40.67;36.22;;;;;;;;;;5084764;28;20424;-75
2022/06/25 04:24:42;;;;;;;42.88;38.28;;;;;;;;;;5080934;28;20429;-75
2022/06/25 04:29:03;;;;;;;44.47;39.60;;;;;;;;;;5087130;28;20483;-75
2022/06/25 04:29:55;;;;;;;43.55;38.85;;;;;;;;;;5087093;28;20512;-75
2022/06/25 04:32:21;;;;;;;43.60;38.85;;;;;;;;;;5099143;28;20422;-75
2022/06/25 04:34:48;;;;;;;38.92;34.72;;;;;;;;;;5097616;28;20416;-75
2022/06/25 04:37:14;;;;;;;46.83;41.72;;;;;;;;;;5092880;28;20426;-75
2022/06/25 04:39:40;;;;;;;45.78;41.08;;;;;;;;;;5090374;28;20425;-75
2022/06/25 04:42:06;;;;;;;45.83;40.85;;;;;;;;;;5091956;28;20947;-75
2022/06/25 04:44:33;;;;;;;46.38;41.50;;;;;;;;;;5082009;28;20436;-74
2022/06/25 04:47:00;;;;;;;47.63;42.58;;;;;;;;;;5083528;28;20794;-75
2022/06/25 04:49:27;;;;;;;46.90;41.92;;;;;;;;;;5082597;28;20418;-75
2022/06/25 04:51:53;;;;;;;44.60;40.00;;;;;;;;;;5083750;28;20444;-74
2022/06/25 04:54:19;;;;;;;44.28;39.47;;;;;;;;;;5087856;28;20429;-74
2022/06/25 04:56:45;;;;;;;45.90;41.10;;;;;;;;;;5087309;28;20418;-74
2022/06/25 04:59:12;;;;;;;47.90;43.00;;;;;;;;;;5088561;28;20909;-74
2022/06/25 05:01:38;;;;;;;45.30;40.60;;;;;;;;;;5095370;28;20427;-75
2022/06/25 05:04:06;;;;;;;44.88;40.20;;;;;;;;;;5094119;28;20412;-74
2022/06/25 05:06:32;;;;;;;43.92;39.45;;;;;;;;;;5088713;28;20433;-75
2022/06/25 05:08:59;;;;;;;44.97;40.37;;;;;;;;;;5089797;28;20480;-75
2022/06/25 05:11:25;;;;;;;45.90;40.92;;;;;;;;;;5083276;28;20817;-75
2022/06/25 05:13:51;;;;;;;45.50;40.75;;;;;;;;;;5090512;28;20409;-75
2022/06/25 05:16:18;;;;;;;45.70;41.03;;;;;;;;;;5086176;28;20793;-75
2022/06/25 05:18:44;;;;;;;45.13;40.43;;;;;;;;;;5090813;28;20756;-75
2022/06/25 05:21:12;;;;;;;46.55;41.85;;;;;;;;;;5083392;28;20426;-75
2022/06/25 05:23:38;;;;;;;45.72;40.97;;;;;;;;;;5090086;28;20426;-75
2022/06/25 05:26:04;;;;;;;46.00;41.40;;;;;;;;;;5091013;28;20426;-75
2022/06/25 05:28:30;;;;;;;45.38;40.88;;;;;;;;;;5091946;28;20441;-75
2022/06/25 05:30:57;;;;;;;43.65;39.20;;;;;;;;;;5089086;28;20433;-75
2022/06/25 05:33:23;;;;;;;44.33;39.88;;;;;;;;;;5098530;28;20797;-75
2022/06/25 05:35:49;;;;;;;43.90;39.40;;;;;;;;;;5090909;28;20474;-75
2022/06/25 05:38:17;;;;;;;43.00;38.60;;;;;;;;;;5092670;28;20983;-75
2022/06/25 05:40:43;;;;;;;41.65;37.47;;;;;;;;;;5089072;28;20426;-75
2022/06/25 05:43:10;;;;;;;41.35;37.25;;;;;;;;;;5092326;28;20506;-75
2022/06/25 05:45:36;;;;;;;40.28;36.13;;;;;;;;;;5098169;22;20443;-74
2022/06/25 05:48:03;;;;;;;42.92;38.63;;;;;;;;;;5096607;28;21129;-74
2022/06/25 05:50:29;;;;;;;40.13;36.40;;;;;;;;;;5079709;28;20536;-74
2022/06/25 05:52:56;;;;;;;37.90;34.03;;;;;;;;;;5084699;28;20432;-75
2022/06/25 05:55:23;;;;;;;40.00;36.20;;;;;;;;;;5074832;28;20453;-74
2022/06/25 05:57:50;;;;;;;40.50;36.10;;;;;;;;;;5061837;28;20427;-74
2022/06/25 06:00:16;;;;;;;40.30;36.20;;;;;;;;;;5058907;28;20423;-74
2022/06/25 06:02:43;;;;;;;37.42;33.72;;;;;;;;;;5067763;28;20429;-74
2022/06/25 06:05:09;;;;;;;38.47;34.47;;;;;;;;;;5067545;28;20423;-75
2022/06/25 06:07:35;;;;;;;37.65;33.95;;;;;;;;;;5059376;28;20447;-74
2022/06/25 06:10:02;;;;;;;36.65;32.95;;;;;;;;;;5062384;28;20415;-74
2022/06/25 06:12:30;;;;;;;37.40;33.50;;;;;;;;;;5057798;28;20433;-74
2022/06/25 06:14:56;;;;;;;35.30;31.60;;;;;;;;;;5061115;28;20423;-76
2022/06/25 06:17:23;;;;;;;34.00;30.80;;;;;;;;;;5061243;28;20431;-75
2022/06/25 06:19:49;;;;;;;34.13;30.90;;;;;;;;;;5063259;28;20761;-75
2022/06/25 06:22:15;;;;;;;35.97;32.47;;;;;;;;;;5081662;28;20415;-74
2022/06/25 06:24:41;;;;;;;34.90;31.48;;;;;;;;;;5062847;28;20429;-75
2022/06/25 06:27:08;;;;;;;32.13;29.02;;;;;;;;;;5079201;28;20422;-75
2022/06/25 06:29:35;;;;;;;31.50;28.42;;;;;;;;;;5065649;28;20425;-75
2022/06/25 06:32:02;;;;;;;31.20;28.02;;;;;;;;;;5059259;28;20452;-74
2022/06/25 06:34:28;;;;;;;29.08;26.27;;;;;;;;;;5067503;28;20420;-75
2022/06/25 06:36:54;;;;;;;26.80;24.00;;;;;;;;;;5083834;28;20410;-75
2022/06/25 06:39:21;;;;;;;25.05;22.60;;;;;;;;;;5070790;28;20422;-74
2022/06/25 06:41:47;;;;;;;23.08;20.73;;;;;;;;;;5070116;28;20417;-75
2022/06/25 06:44:13;;;;;;;25.00;22.50;;;;;;;;;;5082252;28;20419;-74
2022/06/25 06:46:41;;;;;;;22.52;20.42;;;;;;;;;;5080108;28;20787;-75
2022/06/25 06:49:09;;;;;;;22.13;19.98;;;;;;;;;;5072391;28;20438;-75
2022/06/25 06:51:35;;;;;;;24.23;21.83;;;;;;;;;;5070191;28;20434;-74
2022/06/25 06:54:01;;;;;;;22.10;18.80;;;;;;;;;;5080802;28;20421;-75
2022/06/25 06:56:28;;;;;;;19.35;17.55;;;;;;;;;;5070911;28;21362;-75
2022/06/25 06:58:54;;;;;;;17.80;16.17;;;;;;;;;;5080307;28;20416;-74
2022/06/25 07:01:21;;;;;;;14.68;13.02;;;;;;;;;;5065275;28;20504;-75
2022/06/25 07:03:48;;;;;;;14.30;13.00;;;;;;;;;;5071090;28;20413;-75
2022/06/25 07:06:15;;;;;;;13.80;12.48;;;;;;;;;;5076790;28;20434;-75
2022/06/25 07:08:41;;;;;;;11.93;10.82;;;;;;;;;;5051582;28;20414;-74
2022/06/25 07:11:28;;;;;;;12.30;11.10;;;;;;;;;;5053964;28;20432;-74
2022/06/25 07:13:54;;;;;;;13.60;10.30;;;;;;;;;;5057768;28;20529;-75
2022/06/25 07:16:20;;;;;;;9.90;9.00;;;;;;;;;;5056483;28;20830;-75
2022/06/25 07:18:47;;;;;;;10.70;9.70;;;;;;;;;;5077658;28;20429;-75
2022/06/25 07:21:14;;;;;;;9.00;8.10;;;;;;;;;;5075401;28;20421;-75
2022/06/25 07:23:40;;;;;;;10.57;9.57;;;;;;;;;;5082192;28;20419;-75
2022/06/25 07:26:07;;;;;;;12.95;11.77;;;;;;;;;;5081720;28;20791;-75
2022/06/25 07:28:33;;;;;;;13.65;12.35;;;;;;;;;;5074951;28;20411;-75
2022/06/25 07:30:59;;;;;;;11.45;10.45;;;;;;;;;;5063809;28;20461;-75
2022/06/25 07:33:26;;;;;;;13.02;11.73;;;;;;;;;;5071144;28;20415;-74
2022/06/25 07:35:52;;;;;;;12.10;11.00;;;;;;;;;;5064685;28;20938;-76
2022/06/25 07:38:20;;;;;;;11.90;10.80;;;;;;;;;;5065522;28;20411;-75
2022/06/25 07:40:46;;;;;;;12.50;11.30;;;;;;;;;;5082495;28;20406;-74
2022/06/25 07:43:12;;;;;;;13.48;12.18;;;;;;;;;;5071277;28;20417;-74
2022/06/25 07:45:39;;;;;;;13.52;12.20;;;;;;;;;;5082636;28;20425;-75
2022/06/25 07:48:05;;;;;;;12.75;11.65;;;;;;;;;;5082620;28;20422;-76
2022/06/25 07:53:15;;;;;;;9.23;8.40;;;;;;;;;;5082845;28;20439;-75
2022/06/25 07:55:43;;;;;;;9.20;8.30;;;;;;;;;;5083785;28;20433;-76
2022/06/25 07:58:09;;;;;;;10.82;9.82;;;;;;;;;;5072279;28;20413;-76
2022/06/25 08:00:35;;;;;;;10.75;9.10;;;;;;;;;;5057608;28;20797;-76
2022/06/25 08:03:02;;;;;;;10.38;9.27;;;;;;;;;;5076243;28;20427;-76
2022/06/25 08:05:28;;;;;;;9.45;8.65;;;;;;;;;;5076803;28;20835;-76
2022/06/25 08:07:55;;;;;;;10.73;9.63;;;;;;;;;;5073879;28;20423;-76
2022/06/25 08:10:21;;;;;;;9.98;8.93;;;;;;;;;;5071111;28;20903;-77
2022/06/25 08:12:49;;;;;;;9.23;8.43;;;;;;;;;;5082256;28;20416;-76
2022/06/25 08:15:16;;;;;;;9.10;8.20;;;;;;;;;;5069260;28;20426;-75
2022/06/25 08:17:43;;;;;;;7.88;6.85;;;;;;;;;;5066191;28;20966;-75
2022/06/25 08:20:09;;;;;;;8.50;6.75;;;;;;;;;;5065815;28;20448;-76
2022/06/25 08:22:36;;;;;;;6.30;5.70;;;;;;;;;;5071429;28;20777;-75
2022/06/25 08:25:03;;;;;;;6.47;5.87;;;;;;;;;;5073298;28;20510;-75
2022/06/25 08:27:31;;;;;;;5.70;5.20;;;;;;;;;;5072431;28;20507;-75
2022/06/25 08:29:59;;;;;;;8.05;6.03;;;;;;;;;;5073267;28;20431;-75
2022/06/25 08:32:25;;;;;;;5.80;4.90;;;;;;;;;;5080679;28;20418;-76
2022/06/25 08:34:52;;;;;;;9.50;5.67;;;;;;;;;;5071514;28;20432;-75
2022/06/25 08:37:18;;;;;;;6.20;5.60;;;;;;;;;;5065622;28;20927;-76
2022/06/25 08:39:44;;;;;;;5.40;4.97;;;;;;;;;;5067164;28;20423;-75
2022/06/25 08:42:11;;;;;;;6.23;4.90;;;;;;;;;;5073161;28;20969;-75
2022/06/25 08:44:37;;;;;;;6.90;6.20;;;;;;;;;;5070328;28;20439;-75
2022/06/25 08:47:05;;;;;;;6.30;5.50;;;;;;;;;;5065670;28;20421;-75
2022/06/25 08:49:34;;;;;;;6.30;5.00;;;;;;;;;;5059659;28;20515;-76
2022/06/25 08:52:01;;;;;;;5.85;5.35;;;;;;;;;;5066259;28;20797;-75
2022/06/25 08:54:28;;;;;;;7.45;5.00;;;;;;;;;;5057215;28;20451;-75
2022/06/25 08:56:54;;;;;;;6.45;5.50;;;;;;;;;;5065281;28;20777;-75
2022/06/25 08:59:21;;;;;;;7.30;5.90;;;;;;;;;;5063105;28;20421;-75
2022/06/25 09:01:47;;;;;;;5.83;5.23;;;;;;;;;;5063482;28;20939;-75
2022/06/25 09:04:16;;;;;;;5.60;4.90;;;;;;;;;;5073396;28;20430;-75
2022/06/25 09:06:43;;;;;;;6.20;4.82;;;;;;;;;;5079384;28;20458;-75
2022/06/25 09:09:11;;;;;;;5.65;5.05;;;;;;;;;;5075110;28;20405;-75
2022/06/25 09:11:53;;;;;;;5.15;4.50;;;;;;;;;;5080206;28;20430;-75
2022/06/25 09:14:21;;;;;;;6.70;4.80;;;;;;;;;;5075023;28;21076;-75
2022/06/25 09:16:48;;;;;;;5.70;5.20;;;;;;;;;;5076982;28;20771;-75
2022/06/25 09:19:27;;;;;;;6.37;5.30;;;;;;;;;;5066563;28;20917;-75
2022/06/25 09:21:53;;;;;;;5.40;4.90;;;;;;;;;;5064164;28;20437;-75
2022/06/25 09:24:20;;;;;;;6.37;5.10;;;;;;;;;;5070859;28;20434;-75
2022/06/25 09:26:50;;;;;;;6.32;5.72;;;;;;;;;;5073176;28;20422;-75
2022/06/25 09:29:17;;;;;;;4.72;4.32;;;;;;;;;;5071005;28;20426;-75
2022/06/25 09:31:43;;;;;;;6.10;4.90;;;;;;;;;;5081567;28;20405;-75
2022/06/25 09:34:09;;;;;;;5.93;4.97;;;;;;;;;;5078177;28;20437;-75
2022/06/25 09:36:37;;;;;;;5.22;4.35;;;;;;;;;;5078994;28;20504;-75
2022/06/25 09:39:04;;;;;;;5.15;4.50;;;;;;;;;;5061144;28;20418;-75
2022/06/25 09:41:45;;;;;;;5.10;4.20;;;;;;;;;;5059020;28;20559;-75
2022/06/25 09:44:15;;;;;;;4.20;3.80;;;;;;;;;;5071221;28;20414;-77
2022/06/25 09:46:53;;;;;;;5.13;4.25;;;;;;;;;;5059027;28;20451;-76
2022/06/25 09:49:22;;;;;;;5.47;4.10;;;;;;;;;;5061231;28;20414;-75
2022/06/25 09:51:58;;;;;;;4.38;3.50;;;;;;;;;;5062737;28;20435;-78
2022/06/25 09:54:25;;;;;;;3.83;3.42;;;;;;;;;;5063124;28;20426;-76
2022/06/25 09:56:51;;;;;;;6.78;3.80;;;;;;;;;;5049270;28;20436;-76
2022/06/25 09:59:18;;;;;;;3.42;3.08;;;;;;;;;;5054814;28;20429;-75
2022/06/25 10:01:44;;;;;;;4.25;3.65;;;;;;;;;;5052961;28;20427;-76
2022/06/25 10:04:11;;;;;;;3.40;3.20;;;;;;;;;;5052792;28;20427;-76
2022/06/25 10:06:39;;;;;;;3.77;3.20;;;;;;;;;;5055168;28;20503;-76
2022/06/25 10:09:08;;;;;;;4.27;3.30;;;;;;;;;;5057238;28;20440;-75
2022/06/25 10:11:37;;;;;;;3.17;2.88;;;;;;;;;;5052886;28;20439;-75
2022/06/25 10:14:03;;;;;;;3.35;2.95;;;;;;;;;;5049969;28;20911;-75
2022/06/25 10:16:30;;;;;;;3.08;2.75;;;;;;;;;;5057080;28;20433;-76
2022/06/25 10:18:56;;;;;;;2.60;2.40;;;;;;;;;;5059004;28;20433;-76
2022/06/25 10:21:23;;;;;;;3.00;2.70;;;;;;;;;;5054768;28;20438;-75
2022/06/25 10:23:51;;;;;;;4.60;3.10;;;;;;;;;;5057185;28;20436;-76
2022/06/25 10:26:19;;;;;;;3.25;2.95;;;;;;;;;;5058257;28;20441;-76
2022/06/25 10:28:46;;;;;;;3.70;2.80;;;;;;;;;;5059586;28;20431;-75
2022/06/25 10:31:14;;;;;;;3.30;2.63;;;;;;;;;;5061122;28;20427;-75
2022/06/25 10:33:52;;;;;;;4.50;2.70;;;;;;;;;;5061384;28;20787;-75
2022/06/25 10:36:18;;;;;;;4.22;2.80;;;;;;;;;;5058679;28;20433;-76
2022/06/25 10:38:44;;;;;;;3.50;2.30;;;;;;;;;;5057921;28;20421;-76
2022/06/25 10:43:57;;;;;;;3.42;2.90;;;;;;;;;;5057790;28;20453;-75
2022/06/25 10:46:24;;;;;;;2.97;2.70;;;;;;;;;;5056377;28;20526;-76
2022/06/25 10:48:51;;;;;;;5.20;2.72;;;;;;;;;;5058485;28;20425;-76
2022/06/25 10:51:27;;;;;;;3.10;2.90;;;;;;;;;;5058268;28;20456;-76
2022/06/25 10:53:54;;;;;;;3.47;2.63;;;;;;;;;;5058102;28;20795;-76
2022/06/25 10:56:20;;;;;;;4.10;2.70;;;;;;;;;;5059219;28;20418;-76
2022/06/25 10:58:50;;;;;;;3.27;2.97;;;;;;;;;;5060005;28;20777;-76
2022/06/25 11:01:32;;;;;;;5.65;3.30;;;;;;;;;;5056124;28;20427;-75
2022/06/25 11:03:59;;;;;;;4.07;3.00;;;;;;;;;;5060084;28;20419;-76
2022/06/25 11:06:29;;;;;;;3.80;3.10;;;;;;;;;;5056662;28;20431;-76
2022/06/25 11:08:56;;;;;;;3.60;2.90;;;;;;;;;;5058355;28;20980;-75
2022/06/25 11:11:26;;;;;;;6.40;3.00;;;;;;;;;;5059155;28;20417;-75
2022/06/25 11:13:53;;;;;;;4.80;3.17;;;;;;;;;;5058930;28;20421;-75
2022/06/25 11:16:20;;;;;;;4.38;3.00;;;;;;;;;;5058823;28;20492;-75
2022/06/25 11:18:48;;;;;;;3.47;2.85;;;;;;;;;;5057588;28;20426;-75
2022/06/25 11:21:27;;;;;;;3.70;2.90;;;;;;;;;;5060431;28;20424;-75
2022/06/25 11:23:54;;;;;;;3.80;3.28;;;;;;;;;;5051550;28;20425;-75
2022/06/25 11:29:05;;;;;;;3.70;3.03;;;;;;;;;;5058773;28;20895;-75
2022/06/25 11:31:33;;;;;;;4.50;3.10;;;;;;;;;;5059074;28;20466;-76
2022/06/25 11:34:01;;;;;;;3.97;3.10;;;;;;;;;;5058063;28;20427;-76
2022/06/25 11:36:27;;;;;;;5.03;3.42;;;;;;;;;;5053084;28;20439;-76
2022/06/25 11:38:55;;;;;;;4.85;3.13;;;;;;;;;;5058793;28;20429;-76
2022/06/25 11:41:21;;;;;;;3.22;2.92;;;;;;;;;;5059485;28;20434;-76
2022/06/25 11:43:48;;;;;;;5.07;3.30;;;;;;;;;;5057517;28;20420;-76
2022/06/25 11:46:16;;;;;;;5.40;3.10;;;;;;;;;;5086898;22;20949;-73
2022/06/25 11:48:42;;;;;;;3.53;3.20;;;;;;;;;;5075662;28;20450;-73
2022/06/25 11:51:10;;;;;;;4.13;3.10;;;;;;;;;;5077210;28;20799;-73
2022/06/25 11:53:36;;;;;;;3.80;3.05;;;;;;;;;;5068740;28;20427;-73
2022/06/25 11:56:03;;;;;;;5.63;3.20;;;;;;;;;;5075405;28;20429;-74
2022/06/25 11:58:31;;;;;;;3.47;3.17;;;;;;;;;;5073069;28;20418;-73
2022/06/25 12:00:58;;;;;;;6.10;3.00;;;;;;;;;;5074735;28;21401;-73
2022/06/25 12:03:24;;;;;;;3.13;2.88;;;;;;;;;;5072565;28;20431;-75
2022/06/25 12:05:51;;;;;;;3.53;2.80;;;;;;;;;;5076343;28;20430;-75
2022/06/25 12:08:20;;;;;;;3.10;2.80;;;;;;;;;;5074541;28;20428;-75
2022/06/25 12:10:48;;;;;;;4.23;2.70;;;;;;;;;;5068801;28;20857;-75
2022/06/25 12:13:14;;;;;;;2.90;2.70;;;;;;;;;;5071892;28;20434;-75
2022/06/25 12:15:41;;;;;;;2.90;2.50;;;;;;;;;;5070641;28;20478;-76
2022/06/25 12:18:07;;;;;;;6.60;2.30;;;;;;;;;;5070254;28;20422;-75
2022/06/25 12:20:34;;;;;;;3.00;2.30;;;;;;;;;;5072376;28;20438;-75
2022/06/25 12:23:01;;;;;;;2.78;2.20;;;;;;;;;;5070553;28;20430;-75
2022/06/25 12:25:30;;;;;;;3.50;2.40;;;;;;;;;;5074204;28;20787;-74
2022/06/25 12:27:56;;;;;;;3.33;2.47;;;;;;;;;;5068144;28;20427;-74
2022/06/25 12:30:23;;;;;;;4.38;3.00;;;;;;;;;;5073092;28;20439;-74
2022/06/25 12:32:49;;;;;;;3.42;2.30;;;;;;;;;;5071686;28;20431;-74
2022/06/25 12:35:18;;;;;;;7.73;2.90;;;;;;;;;;5068423;28;20431;-74
2022/06/25 12:37:44;;;;;;;3.37;2.30;;;;;;;;;;5074832;28;20423;-74
2022/06/25 12:40:11;;;;;;;3.67;2.15;;;;;;;;;;5078198;28;20418;-74
2022/06/25 12:42:53;;;;;;;3.00;2.15;;;;;;;;;;5078433;28;20411;-74
2022/06/25 12:45:19;;;;;;;3.00;2.10;;;;;;;;;;5076795;28;20996;-74
2022/06/25 12:47:46;;;;;;;2.50;2.30;;;;;;;;;;5077810;28;20418;-74
2022/06/25 12:50:21;;;;;;;5.00;2.60;;;;;;;;;;5077141;28;20429;-74
2022/06/25 12:52:47;;;;;;;3.60;2.30;;;;;;;;;;5077593;28;20421;-74
2022/06/25 12:55:17;;;;;;;3.13;2.40;;;;;;;;;;5074995;28;20803;-74
2022/06/25 12:57:45;;;;;;;2.50;2.20;;;;;;;;;;5068786;28;20784;-72
2022/06/25 13:00:17;;;;;;;3.90;2.50;;;;;;;;;;5077255;28;20418;-72
2022/06/25 13:02:43;;;;;;;5.07;2.33;;;;;;;;;;5078543;28;20426;-72
2022/06/25 13:05:10;;;;;;;5.10;2.10;;;;;;;;;;5072984;28;20427;-72
2022/06/25 13:07:36;;;;;;;2.60;2.00;;;;;;;;;;5076587;28;20418;-73
2022/06/25 13:10:02;;;;;;;2.60;2.30;;;;;;;;;;5076046;28;20430;-72
2022/06/25 13:12:30;;;;;;;3.75;2.10;;;;;;;;;;5078762;28;20421;-73
2022/06/25 13:14:58;;;;;;;4.20;2.50;;;;;;;;;;5076007;28;20421;-72
2022/06/25 13:17:24;;;;;;;2.95;2.30;;;;;;;;;;5074802;28;20419;-72
2022/06/25 13:19:50;;;;;;;3.50;2.50;;;;;;;;;;5065170;28;20426;-74
2022/06/25 13:22:17;;;;;;;2.92;2.20;;;;;;;;;;5075064;28;20411;-73
2022/06/25 13:24:44;;;;;;;2.00;1.90;;;;;;;;;;5070560;28;20437;-73
2022/06/25 13:27:10;;;;;;;3.10;2.10;;;;;;;;;;5073001;28;20442;-73
2022/06/25 13:29:37;;;;;;;3.13;2.00;;;;;;;;;;5070334;28;20516;-73
2022/06/25 13:32:05;;;;;;;2.78;2.10;;;;;;;;;;5072860;28;20404;-73
2022/06/25 13:34:31;;;;;;;3.20;2.28;;;;;;;;;;5074776;28;20434;-73
2022/06/25 13:36:57;;;;;;;3.13;1.80;;;;;;;;;;5070556;28;20431;-73
2022/06/25 13:39:24;;;;;;;2.90;2.20;;;;;;;;;;5072379;28;21006;-73
2022/06/25 13:41:51;;;;;;;3.00;2.10;;;;;;;;;;5069737;28;20425;-73
2022/06/25 13:44:18;;;;;;;2.30;2.10;;;;;;;;;;5078680;28;20433;-73
2022/06/25 13:46:44;;;;;;;2.20;1.97;;;;;;;;;;5073745;28;20973;-73
2022/06/25 13:49:12;;;;;;;2.92;2.30;;;;;;;;;;5076751;28;20431;-74
2022/06/25 13:51:39;;;;;;;2.53;2.20;;;;;;;;;;5075860;28;20432;-74
2022/06/25 13:54:05;;;;;;;4.25;2.33;;;;;;;;;;5080062;28;20422;-74
2022/06/25 13:56:32;;;;;;;3.13;2.15;;;;;;;;;;5072599;28;20525;-74
2022/06/25 13:58:58;;;;;;;2.90;2.00;;;;;;;;;;5074971;28;20416;-74
2022/06/25 14:01:24;;;;;;;3.20;2.00;;;;;;;;;;5079129;28;20432;-74
2022/06/25 14:03:51;;;;;;;3.50;2.13;;;;;;;;;;5072395;28;20426;-75
2022/06/25 14:06:19;;;;;;;3.38;2.00;;;;;;;;;;5072684;28;20497;-74
2022/06/25 14:08:45;;;;;;;2.38;2.03;;;;;;;;;;5070199;28;20423;-75
2022/06/25 14:11:12;;;;;;;3.80;2.20;;;;;;;;;;5076725;28;20426;-73
2022/06/25 14:13:39;;;;;;;5.03;2.28;;;;;;;;;;5079040;28;20421;-74
2022/06/25 14:16:05;;;;;;;5.30;2.50;;;;;;;;;;5079892;28;20411;-74
2022/06/25 14:18:32;;;;;;;4.78;1.95;;;;;;;;;;5078993;28;20414;-73
2022/06/25 14:20:58;;;;;;;3.70;2.00;;;;;;;;;;5080202;28;20421;-73
2022/06/25 14:23:26;;;;;;;3.28;2.28;;;;;;;;;;5080097;28;20414;-73
2022/06/25 14:25:52;;;;;;;2.80;1.90;;;;;;;;;;5077664;28;20444;-73
2022/06/25 14:28:18;;;;;;;2.55;2.00;;;;;;;;;;5076879;28;20923;-74
2022/06/25 14:30:44;;;;;;;3.07;2.20;;;;;;;;;;5076099;28;20427;-73
2022/06/25 14:33:12;;;;;;;2.40;2.20;;;;;;;;;;5071065;28;20425;-74
2022/06/25 14:35:38;;;;;;;3.90;2.38;;;;;;;;;;5081411;28;20505;-73
2022/06/25 14:43:34;;;;;;;3.25;2.40;;;;;;;;;;5078047;28;20948;-73
2022/06/25 14:46:00;;;;;;;7.32;2.28;;;;;;;;;;5079398;28;20413;-74
2022/06/25 14:48:26;;;;;;;4.22;2.42;;;;;;;;;;5076519;28;20423;-73